createdAt,value
2022-08-01T00:00:10.613Z,11.77
2022-08-01T00:02:39.061Z,10.40
2022-08-01T00:05:07.246Z,11.65
2022-08-01T00:07:34.850Z,9.85
2022-08-01T00:10:02.321Z,10.00
2022-08-01T00:12:29.124Z,10.63
2022-08-01T00:14:55.796Z,11.48
2022-08-01T00:17:22.450Z,10.55
2022-08-01T00:19:49.250Z,11.18
2022-08-01T00:22:16.163Z,11.52
2022-08-01T00:24:42.786Z,11.45
2022-08-01T00:27:09.464Z,10.30
2022-08-01T00:30:04.685Z,10.10
2022-08-01T00:32:22.879Z,10.68
2022-08-01T00:34:49.823Z,10.50
2022-08-01T00:37:18.268Z,10.63
2022-08-01T00:39:44.930Z,11.70
2022-08-01T00:42:12.916Z,11.52
2022-08-01T00:44:40.289Z,11.20
2022-08-01T00:47:07.139Z,11.30
2022-08-01T00:49:34.225Z,13.07
2022-08-01T00:52:02.218Z,12.50
2022-08-01T00:54:29.403Z,13.55
2022-08-01T00:56:56.790Z,12.88
2022-08-01T00:59:25.843Z,13.85
2022-08-01T01:01:52.781Z,14.40
2022-08-01T01:04:20.587Z,12.95
2022-08-01T01:07:09.053Z,12.40
2022-08-01T01:09:59.863Z,13.20
2022-08-01T01:12:38.237Z,12.93
2022-08-01T01:15:19.061Z,13.67
2022-08-01T01:18:04.092Z,14.77
2022-08-01T01:20:36.927Z,15.10
2022-08-01T01:23:21.507Z,13.88
2022-08-01T01:26:00.270Z,16.65
2022-08-01T01:28:42.795Z,16.50
2022-08-01T01:31:12.857Z,18.50
2022-08-01T01:33:47.389Z,19.52
2022-08-01T01:36:15.585Z,21.88
2022-08-01T01:38:45.470Z,22.48
2022-08-01T01:41:14.049Z,25.17
2022-08-01T01:43:41.554Z,23.08
2022-08-01T01:46:10.747Z,25.25
2022-08-01T01:48:39.790Z,27.55
2022-08-01T01:51:06.845Z,32.55
2022-08-01T01:53:35.912Z,36.97
2022-08-01T01:56:03.808Z,41.88
2022-08-01T01:58:33.975Z,46.80
2022-08-01T02:01:03.556Z,53.90
2022-08-01T02:03:32.152Z,58.65
2022-08-01T02:06:00.256Z,67.30
2022-08-01T02:08:30.551Z,73.72
2022-08-01T02:11:19.319Z,76.47
2022-08-01T02:14:06.858Z,75.95
2022-08-01T02:16:37.211Z,85.47
2022-08-01T02:19:04.594Z,87.50
2022-08-01T02:21:45.250Z,99.25
2022-08-01T02:24:21.519Z,110.65
2022-08-01T02:27:02.499Z,117.13
2022-08-01T02:29:36.873Z,131.70
2022-08-01T02:32:06.179Z,133.63
2022-08-01T02:34:36.734Z,155.20
2022-08-01T02:37:05.504Z,173.15
2022-08-01T02:39:33.001Z,178.88
2022-08-01T02:42:04.649Z,186.57
2022-08-01T02:44:36.314Z,193.32
2022-08-01T02:47:04.535Z,207.27
2022-08-01T02:49:37.719Z,208.45
2022-08-01T02:52:10.909Z,208.00
2022-08-01T02:54:39.994Z,205.70
2022-08-01T02:57:09.100Z,211.18
2022-08-01T02:59:42.218Z,216.40
2022-08-01T03:02:10.370Z,222.32
2022-08-01T03:04:40.574Z,217.93
2022-08-01T03:07:09.371Z,224.02
2022-08-01T03:09:44.368Z,216.65
2022-08-01T03:12:15.315Z,216.27
2022-08-01T03:14:44.012Z,221.25
2022-08-01T03:17:12.505Z,214.02
2022-08-01T03:19:40.637Z,217.05
2022-08-01T03:22:13.591Z,212.47
2022-08-01T03:24:42.567Z,222.67
2022-08-01T03:27:10.108Z,229.80
2022-08-01T03:29:40.286Z,232.17
2022-08-01T03:32:08.122Z,235.68
2022-08-01T03:34:35.006Z,240.45
2022-08-01T03:37:16.118Z,238.75
2022-08-01T03:39:52.865Z,237.00
2022-08-01T03:42:24.531Z,235.77
2022-08-01T03:44:56.159Z,236.07
2022-08-01T03:47:27.193Z,241.95
2022-08-01T03:49:55.972Z,237.75
2022-08-01T03:52:24.837Z,235.05
2022-08-01T03:54:56.478Z,238.27
2022-08-01T03:57:36.050Z,237.88
2022-08-01T04:00:09.810Z,242.50
2022-08-01T04:02:39.961Z,240.23
2022-08-01T04:05:06.952Z,244.25
2022-08-01T04:07:37.022Z,247.93
2022-08-01T04:10:04.992Z,242.32
2022-08-01T04:12:33.616Z,244.05
2022-08-01T04:15:00.444Z,246.98
2022-08-01T04:17:27.062Z,235.75
2022-08-01T04:19:53.731Z,238.20
2022-08-01T04:22:20.650Z,240.25
2022-08-01T04:24:54.519Z,243.50
2022-08-01T04:27:50.008Z,240.93
2022-08-01T04:30:21.086Z,228.68
2022-08-01T04:32:48.904Z,237.93
2022-08-01T04:35:22.985Z,237.10
2022-08-01T04:38:05.753Z,232.95
2022-08-01T04:40:33.663Z,231.90
2022-08-01T04:43:01.282Z,222.68
2022-08-01T04:45:28.738Z,236.00
2022-08-01T04:47:56.342Z,235.65
2022-08-01T04:50:23.688Z,238.52
2022-08-01T04:52:50.358Z,237.17
2022-08-01T04:55:18.168Z,233.02
2022-08-01T04:57:47.445Z,230.25
2022-08-01T05:00:15.090Z,231.63
2022-08-01T05:02:41.687Z,235.48
2022-08-01T05:05:08.914Z,236.13
2022-08-01T05:07:45.114Z,239.20
2022-08-01T05:10:12.803Z,238.20
2022-08-01T05:12:39.527Z,233.20
2022-08-01T05:15:10.575Z,229.30
2022-08-01T05:17:43.236Z,223.68
2022-08-01T05:20:11.127Z,227.43
2022-08-01T05:22:38.048Z,227.97
2022-08-01T05:25:12.747Z,224.47
2022-08-01T05:27:45.387Z,217.43
2022-08-01T05:30:12.342Z,226.00
2022-08-01T05:32:39.305Z,220.90
2022-08-01T05:35:06.717Z,225.05
2022-08-01T05:37:33.366Z,222.52
2022-08-01T05:40:00.002Z,233.87
2022-08-01T05:42:27.212Z,226.52
2022-08-01T05:44:53.916Z,232.35
2022-08-01T05:47:20.670Z,231.80
2022-08-01T05:49:50.927Z,238.27
2022-08-01T05:52:20.090Z,239.00
2022-08-01T05:54:46.722Z,233.73
2022-08-01T05:57:13.532Z,241.35
2022-08-01T05:59:42.154Z,222.83
2022-08-01T06:02:09.316Z,229.35
2022-08-01T06:04:36.521Z,244.63
2022-08-01T06:07:03.242Z,242.60
2022-08-01T06:09:31.641Z,249.85
2022-08-01T06:11:58.682Z,246.33
2022-08-01T06:14:25.512Z,239.77
2022-08-01T06:16:52.255Z,244.07
2022-08-01T06:19:19.107Z,235.80
2022-08-01T06:21:45.709Z,236.00
2022-08-01T06:24:12.842Z,235.85
2022-08-01T06:26:39.538Z,233.93
2022-08-01T06:29:06.196Z,231.48
2022-08-01T06:31:33.898Z,219.40
2022-08-01T06:34:00.837Z,222.90
2022-08-01T06:36:27.770Z,235.85
2022-08-01T06:38:54.400Z,224.30
2022-08-01T06:41:21.062Z,233.60
2022-08-01T06:43:47.824Z,230.30
2022-08-01T06:46:17.191Z,221.20
2022-08-01T06:48:43.912Z,219.00
2022-08-01T06:51:10.642Z,226.33
2022-08-01T06:53:38.497Z,227.48
2022-08-01T06:56:06.593Z,229.85
2022-08-01T06:58:35.313Z,206.80
2022-08-01T07:01:05.086Z,202.90
2022-08-01T07:03:52.796Z,193.32
2022-08-01T07:06:19.145Z,171.02
2022-08-01T07:08:45.880Z,183.07
2022-08-01T07:11:12.560Z,162.00
2022-08-01T07:13:43.966Z,136.40
2022-08-01T07:16:13.465Z,148.52
2022-08-01T07:18:40.251Z,165.90
2022-08-01T07:21:06.957Z,135.48
2022-08-01T07:23:46.128Z,144.15
2022-08-01T07:26:14.165Z,172.82
2022-08-01T07:28:43.918Z,180.60
2022-08-01T07:31:10.925Z,179.60
2022-08-01T07:33:48.441Z,167.52
2022-08-01T07:36:20.370Z,149.32
2022-08-01T07:38:47.587Z,144.52
2022-08-01T07:41:14.813Z,149.50
2022-08-01T07:43:47.270Z,177.77
2022-08-01T07:46:19.870Z,183.90
2022-08-01T07:48:46.596Z,199.27
2022-08-01T07:51:13.390Z,203.02
2022-08-01T07:53:40.124Z,204.55
2022-08-01T07:56:07.284Z,190.82
2022-08-01T07:58:34.477Z,177.30
2022-08-01T08:01:01.126Z,188.48
2022-08-01T08:03:27.851Z,163.30
2022-08-01T08:05:59.564Z,175.88
2022-08-01T08:08:30.353Z,193.75
2022-08-01T08:10:57.044Z,195.53
2022-08-01T08:13:23.684Z,189.93
2022-08-01T08:15:50.413Z,189.32
2022-08-01T08:18:20.159Z,169.13
2022-08-01T08:20:46.843Z,182.95
2022-08-01T08:23:42.177Z,188.23
2022-08-01T08:26:11.648Z,166.27
2022-08-01T08:28:38.317Z,150.57
2022-08-01T08:31:07.235Z,157.75
2022-08-01T08:33:33.871Z,156.97
2022-08-01T08:36:02.313Z,147.82
2022-08-01T08:38:30.126Z,154.35
2022-08-01T08:40:58.239Z,146.20
2022-08-01T08:43:27.054Z,147.73
2022-08-01T08:45:58.105Z,156.02
2022-08-01T08:48:27.844Z,166.90
2022-08-01T08:50:59.381Z,168.05
2022-08-01T08:53:27.292Z,182.70
2022-08-01T08:56:03.521Z,185.32
2022-08-01T08:58:35.201Z,189.77
2022-08-01T09:01:02.202Z,187.02
2022-08-01T09:03:29.019Z,186.82
2022-08-01T09:05:55.760Z,206.32
2022-08-01T09:08:24.044Z,238.10
2022-08-01T09:10:53.352Z,272.70
2022-08-01T09:13:19.965Z,274.00
2022-08-01T09:16:06.172Z,273.60
2022-08-01T09:18:35.668Z,272.23
2022-08-01T09:21:24.052Z,230.68
2022-08-01T09:23:55.007Z,235.57
2022-08-01T09:26:31.221Z,242.35
2022-08-01T09:28:58.429Z,233.50
2022-08-01T09:31:27.761Z,266.63
2022-08-01T09:34:05.915Z,247.90
2022-08-01T09:36:55.357Z,268.08
2022-08-01T09:39:24.963Z,216.77
2022-08-01T09:41:52.768Z,240.03
2022-08-01T09:44:42.350Z,293.15
2022-08-01T09:47:10.744Z,235.75
2022-08-01T09:49:50.432Z,289.55
2022-08-01T09:52:21.520Z,281.27
2022-08-01T09:54:58.418Z,276.70
2022-08-01T09:57:25.455Z,267.10
2022-08-01T09:59:58.751Z,245.38
2022-08-01T10:02:38.375Z,253.00
2022-08-01T10:05:08.815Z,276.95
2022-08-01T10:07:44.077Z,241.18
2022-08-01T10:10:14.467Z,216.10
2022-08-01T10:12:44.391Z,258.92
2022-08-01T10:15:16.142Z,276.02
2022-08-01T10:17:54.321Z,277.83
2022-08-01T10:20:30.064Z,271.15
2022-08-01T10:23:06.326Z,279.92
2022-08-01T10:25:42.874Z,263.42
2022-08-01T10:28:21.681Z,278.57
2022-08-01T10:30:52.144Z,231.75
2022-08-01T10:33:51.865Z,254.03
2022-08-01T10:36:10.690Z,271.80
2022-08-01T10:38:38.076Z,257.75
2022-08-01T10:41:08.537Z,263.90
2022-08-01T10:43:36.397Z,281.17
2022-08-01T10:46:04.963Z,242.55
2022-08-01T10:49:15.454Z,242.50
2022-08-01T10:51:51.279Z,286.33
2022-08-01T10:54:19.716Z,251.18
2022-08-01T10:56:50.524Z,280.30
2022-08-01T10:59:49.273Z,259.88
2022-08-01T11:02:10.064Z,223.02
2022-08-01T11:05:18.033Z,263.50
2022-08-01T11:07:52.540Z,269.40
2022-08-01T11:10:45.289Z,257.80
2022-08-01T11:13:13.483Z,254.18
2022-08-01T11:15:49.947Z,257.05
2022-08-01T11:18:32.531Z,239.98
2022-08-01T11:21:56.431Z,232.80
2022-08-01T11:23:50.674Z,274.15
2022-08-01T11:26:18.105Z,253.23
2022-08-01T11:29:20.662Z,261.37
2022-08-01T11:31:48.588Z,286.30
2022-08-01T11:34:15.619Z,284.92
2022-08-01T11:37:09.782Z,261.35
2022-08-01T11:39:30.177Z,271.23
2022-08-01T11:42:22.014Z,272.70
2022-08-01T11:44:51.179Z,249.37
2022-08-01T11:47:19.471Z,260.15
2022-08-01T11:49:51.706Z,266.92
2022-08-01T11:52:25.970Z,260.08
2022-08-01T11:55:01.707Z,265.52
2022-08-01T11:57:36.087Z,258.92
2022-08-01T12:00:16.579Z,254.23
2022-08-01T12:02:46.408Z,257.27
2022-08-01T12:05:15.650Z,254.02
2022-08-01T12:07:44.602Z,273.52
2022-08-01T12:10:12.373Z,273.03
2022-08-01T12:12:49.328Z,271.63
2022-08-01T12:15:17.030Z,266.67
2022-08-01T12:17:58.211Z,245.40
2022-08-01T12:20:30.721Z,217.75
2022-08-01T12:23:09.756Z,211.48
2022-08-01T12:25:37.673Z,192.20
2022-08-01T12:28:06.453Z,185.27
2022-08-01T12:30:37.509Z,203.67
2022-08-01T12:33:09.713Z,219.70
2022-08-01T12:35:44.410Z,149.75
2022-08-01T12:38:20.380Z,125.50
2022-08-01T12:40:53.009Z,112.28
2022-08-01T12:43:28.343Z,102.22
2022-08-01T12:45:59.316Z,75.30
2022-08-01T12:48:26.995Z,58.65
2022-08-01T12:50:54.960Z,73.72
2022-08-01T12:53:22.668Z,66.55
2022-08-01T12:55:59.670Z,26.65
2022-08-01T12:58:35.347Z,39.35
2022-08-01T13:01:10.652Z,42.33
2022-08-01T13:03:38.134Z,35.30
2022-08-01T13:06:16.314Z,33.40
2022-08-01T13:08:43.596Z,17.65
2022-08-01T13:11:15.587Z,16.23
2022-08-01T13:13:48.656Z,27.58
2022-08-01T13:16:30.376Z,8.90
2022-08-01T13:19:07.224Z,3.83
2022-08-01T13:21:54.486Z,2.50
2022-08-01T13:24:28.698Z,2.40
2022-08-01T13:27:01.071Z,2.72
2022-08-01T13:29:33.157Z,3.20
2022-08-01T13:32:01.233Z,3.10
2022-08-01T13:34:33.288Z,3.28
2022-08-01T13:37:02.476Z,3.40
2022-08-01T13:39:48.367Z,3.15
2022-08-01T13:42:19.389Z,2.95
2022-08-01T13:44:46.355Z,3.05
2022-08-01T13:47:15.818Z,2.75
2022-08-01T13:49:44.190Z,2.20
2022-08-01T13:52:11.073Z,2.63
2022-08-01T13:54:38.140Z,3.05
2022-08-01T13:57:04.984Z,3.00
2022-08-01T13:59:31.763Z,3.30
2022-08-01T14:01:58.459Z,2.90
2022-08-01T14:04:25.100Z,2.95
2022-08-01T14:06:51.741Z,3.03
2022-08-01T14:09:23.862Z,3.17
2022-08-01T14:11:51.468Z,3.30
2022-08-01T14:14:18.199Z,3.13
2022-08-01T14:16:47.733Z,2.92
2022-08-01T14:19:16.959Z,2.90
2022-08-01T14:21:43.569Z,3.03
2022-08-01T14:24:10.702Z,3.10
2022-08-01T14:26:37.328Z,2.77
2022-08-01T14:29:04.106Z,3.17
2022-08-01T14:31:34.129Z,2.78
2022-08-01T14:34:01.309Z,2.60
2022-08-01T14:36:32.446Z,2.63
2022-08-01T14:39:04.856Z,2.67
2022-08-01T14:41:33.466Z,2.42
2022-08-01T14:44:00.808Z,2.83
2022-08-01T14:46:27.608Z,3.05
2022-08-01T14:48:54.362Z,2.78
2022-08-01T14:51:20.993Z,3.30
2022-08-01T14:53:50.779Z,3.00
2022-08-01T14:56:18.320Z,2.80
2022-08-01T14:58:45.288Z,2.92
2022-08-01T15:01:14.898Z,3.20
2022-08-01T15:03:41.842Z,2.80
2022-08-01T15:06:10.506Z,3.38
2022-08-01T15:08:37.202Z,2.92
2022-08-01T15:11:03.997Z,3.10
2022-08-01T15:13:30.589Z,3.07
2022-08-01T15:15:59.784Z,3.05
2022-08-01T15:18:28.772Z,3.00
2022-08-01T15:20:56.240Z,3.20
2022-08-01T15:23:22.954Z,2.55
2022-08-01T15:25:50.410Z,3.53
2022-08-01T15:28:17.188Z,3.10
2022-08-01T15:30:43.916Z,3.50
2022-08-01T15:33:10.627Z,2.78
2022-08-01T15:35:37.276Z,2.92
2022-08-01T15:38:04.054Z,3.03
2022-08-01T15:40:35.929Z,2.92
2022-08-01T15:43:03.560Z,2.30
2022-08-01T15:45:47.060Z,2.80
2022-08-01T15:48:14.660Z,3.07
2022-08-01T15:50:41.383Z,3.17
2022-08-01T15:53:08.136Z,2.80
2022-08-01T15:55:39.100Z,2.50
2022-08-01T15:58:07.240Z,2.90
2022-08-01T16:00:39.577Z,2.80
2022-08-01T16:03:08.073Z,2.67
2022-08-01T16:05:41.092Z,3.00
2022-08-01T16:08:14.123Z,3.05
2022-08-01T16:10:40.943Z,3.10
2022-08-01T16:13:08.040Z,2.90
2022-08-01T16:15:39.139Z,3.25
2022-08-01T16:18:07.082Z,3.00
2022-08-01T16:20:34.457Z,2.63
2022-08-01T16:23:01.598Z,3.07
2022-08-01T16:25:28.286Z,3.30
2022-08-01T16:27:55.282Z,3.50
2022-08-01T16:30:22.124Z,3.30
2022-08-01T16:32:52.138Z,3.08
2022-08-01T16:35:24.600Z,3.15
2022-08-01T16:38:00.648Z,3.13
2022-08-01T16:40:27.409Z,2.67
2022-08-01T16:42:59.043Z,2.92
2022-08-01T16:45:26.229Z,2.92
2022-08-01T16:47:52.964Z,3.15
2022-08-01T16:50:28.610Z,3.50
2022-08-01T16:52:56.029Z,3.33
2022-08-01T16:55:23.298Z,3.05
2022-08-01T16:57:53.759Z,2.97
2022-08-01T17:00:21.289Z,3.13
2022-08-01T17:02:48.497Z,2.72
2022-08-01T17:05:15.338Z,2.83
2022-08-01T17:07:42.205Z,3.28
2022-08-01T17:10:09.417Z,3.00
2022-08-01T17:12:36.258Z,3.22
2022-08-01T17:15:03.556Z,3.17
2022-08-01T17:17:30.201Z,3.00
2022-08-01T17:19:56.811Z,3.15
2022-08-01T17:22:23.456Z,3.22
2022-08-01T17:24:51.861Z,3.10
2022-08-01T17:27:22.045Z,3.50
2022-08-01T17:29:48.751Z,2.83
2022-08-01T17:32:15.451Z,3.25
2022-08-01T17:34:42.594Z,3.20
2022-08-01T17:37:10.394Z,2.80
2022-08-01T17:39:38.781Z,2.92
2022-08-01T17:42:06.039Z,2.90
2022-08-01T17:44:32.666Z,3.07
2022-08-01T17:46:59.329Z,3.05
2022-08-01T17:49:52.204Z,3.55
2022-08-01T17:52:13.212Z,3.20
2022-08-01T17:54:39.935Z,3.15
2022-08-01T17:57:08.276Z,2.95
2022-08-01T17:59:35.544Z,2.73
2022-08-01T18:02:02.268Z,2.97
2022-08-01T18:04:33.876Z,2.90
2022-08-01T18:07:00.974Z,2.80
2022-08-01T18:09:32.519Z,3.00
2022-08-01T18:11:59.980Z,3.58
2022-08-01T18:14:39.913Z,3.30
2022-08-01T18:17:11.193Z,3.40
2022-08-01T18:19:39.187Z,3.28
2022-08-01T18:22:06.183Z,2.85
2022-08-01T18:24:52.996Z,3.10
2022-08-01T18:27:19.609Z,3.08
2022-08-01T18:29:47.389Z,3.28
2022-08-01T18:32:15.343Z,3.08
2022-08-01T18:34:42.090Z,3.60
2022-08-01T18:37:11.427Z,3.15
2022-08-01T18:39:40.068Z,3.40
2022-08-01T18:42:07.129Z,3.30
2022-08-01T18:44:33.790Z,3.50
2022-08-01T18:47:00.539Z,4.10
2022-08-01T18:49:27.226Z,3.67
2022-08-01T18:51:55.404Z,3.70
2022-08-01T18:54:24.249Z,3.80
2022-08-01T18:56:51.292Z,3.70
2022-08-01T18:59:18.147Z,3.70
2022-08-01T19:01:45.067Z,4.28
2022-08-01T19:04:13.304Z,4.47
2022-08-01T19:06:40.608Z,4.40
2022-08-01T19:09:07.373Z,3.58
2022-08-01T19:11:34.640Z,3.30
2022-08-01T19:14:02.257Z,3.60
2022-08-01T19:16:29.379Z,3.53
2022-08-01T19:18:56.203Z,3.42
2022-08-01T19:21:23.360Z,3.67
2022-08-01T19:24:08.772Z,4.30
2022-08-01T19:26:36.129Z,4.05
2022-08-01T19:29:16.443Z,3.95
2022-08-01T19:31:48.688Z,3.88
2022-08-01T19:34:18.279Z,3.53
2022-08-01T19:36:47.609Z,3.42
2022-08-01T19:39:16.916Z,3.92
2022-08-01T19:41:46.134Z,4.22
2022-08-01T19:44:15.031Z,4.32
2022-08-01T19:46:43.545Z,3.80
2022-08-01T19:49:17.639Z,3.30
2022-08-01T19:51:49.496Z,3.42
2022-08-01T19:54:19.491Z,3.25
2022-08-01T19:56:47.813Z,4.15
2022-08-01T19:59:20.217Z,4.00
2022-08-01T20:01:48.376Z,3.95
2022-08-01T20:04:16.763Z,4.13
2022-08-01T20:06:45.408Z,3.73
2022-08-01T20:09:15.562Z,3.88
2022-08-01T20:11:48.901Z,4.10
2022-08-01T20:14:19.160Z,4.43
2022-08-01T20:16:46.003Z,3.47
2022-08-01T20:19:13.553Z,4.50
2022-08-01T20:21:44.045Z,4.13
2022-08-01T20:24:38.078Z,3.95
2022-08-01T20:27:08.244Z,3.83
2022-08-01T20:29:36.519Z,3.60
2022-08-01T20:32:04.272Z,3.43
2022-08-01T20:34:37.722Z,3.92
2022-08-01T20:37:12.891Z,4.82
2022-08-01T20:39:43.461Z,6.65
2022-08-01T20:42:11.452Z,3.97
2022-08-01T20:44:38.909Z,3.53
2022-08-01T20:47:08.210Z,5.53
2022-08-01T20:49:36.764Z,4.47
2022-08-01T20:52:11.772Z,6.78
2022-08-01T20:54:43.010Z,7.40
2022-08-01T20:57:30.534Z,6.07
2022-08-01T21:00:05.812Z,10.93
2022-08-01T21:03:07.904Z,8.60
2022-08-01T21:05:42.805Z,10.00
2022-08-01T21:08:41.113Z,23.60
2022-08-01T21:11:13.346Z,25.23
2022-08-01T21:13:48.209Z,11.40
2022-08-01T21:16:26.447Z,22.97
2022-08-01T21:19:21.078Z,23.50
2022-08-01T21:21:54.124Z,32.72
2022-08-01T21:24:24.520Z,19.95
2022-08-01T21:26:52.536Z,50.50
2022-08-01T21:29:22.390Z,38.77
2022-08-01T21:32:09.672Z,19.43
2022-08-01T21:34:38.601Z,50.05
2022-08-01T21:37:09.521Z,36.45
2022-08-01T21:39:38.048Z,45.47
2022-08-01T21:42:08.453Z,61.17
2022-08-01T21:44:39.260Z,49.55
2022-08-01T21:47:06.657Z,61.97
2022-08-01T21:49:39.296Z,79.32
2022-08-01T21:52:18.234Z,61.45
2022-08-01T21:55:36.544Z,41.15
2022-08-01T21:58:12.066Z,82.80
2022-08-01T22:00:44.879Z,61.58
2022-08-01T22:03:24.971Z,75.57
2022-08-01T22:05:53.729Z,45.95
2022-08-01T22:08:38.890Z,95.25
2022-08-01T22:11:08.328Z,52.97
2022-08-01T22:13:37.072Z,65.85
2022-08-01T22:16:05.768Z,31.92
2022-08-01T22:18:33.697Z,63.70
2022-08-01T22:21:02.086Z,31.48
2022-08-01T22:23:28.916Z,33.88
2022-08-01T22:25:55.864Z,34.85
2022-08-01T22:28:23.683Z,59.08
2022-08-01T22:30:51.794Z,69.43
2022-08-01T22:33:22.019Z,35.50
2022-08-01T22:35:50.899Z,34.22
2022-08-01T22:38:19.466Z,36.55
2022-08-01T22:40:52.590Z,46.40
2022-08-01T22:43:40.912Z,40.28
2022-08-01T22:46:21.272Z,80.50
2022-08-01T22:49:08.881Z,23.88
2022-08-01T22:51:55.666Z,32.20
2022-08-01T22:54:35.177Z,27.75
2022-08-01T22:57:07.339Z,53.83
2022-08-01T22:59:45.713Z,22.25
2022-08-01T23:02:16.588Z,52.13
2022-08-01T23:04:46.392Z,13.93
2022-08-01T23:07:19.168Z,74.32
2022-08-01T23:09:54.214Z,45.67
2022-08-01T23:12:24.521Z,35.40
2022-08-01T23:14:53.780Z,33.33
2022-08-01T23:17:26.832Z,30.95
2022-08-01T23:20:04.739Z,18.10
2022-08-01T23:22:33.737Z,12.45
2022-08-01T23:25:06.603Z,18.13
2022-08-01T23:28:04.019Z,13.38
2022-08-01T23:30:30.063Z,13.63
2022-08-01T23:32:57.776Z,13.10
2022-08-01T23:35:25.562Z,16.85
2022-08-01T23:37:53.045Z,13.75
2022-08-01T23:40:20.689Z,12.73
2022-08-01T23:42:53.351Z,12.70
2022-08-01T23:45:20.581Z,11.35
2022-08-01T23:47:47.228Z,11.50
2022-08-01T23:50:13.870Z,11.05
2022-08-01T23:52:47.275Z,12.55
2022-08-01T23:55:16.719Z,12.55
2022-08-01T23:57:43.494Z,18.38
